Terminal Aerodrome Forecast
Issued by NWS Springfield, MO

Home | Current Version | Previous Version | Graphics & Text | Print | Product List | Glossary On
Versions: 1 2 3 4 5 6 7 8 9 10 11 12 13 14
000
FTUS43 KSGF 202300
TAFSGF
TAF
KSGF 202320Z 2100/2124 21018KT P6SM SKC
     FM210200 19010KT P6SM SKC
     FM210600 17008KT P6SM SKC WS020/22040KT
     FM211500 20012G20KT P6SM SKC=

USA.gov is the U.S. government's official web portal to all federal, state and local government web resources and services.